Time;durP1;ratioP1;P1;durP2;ratioP2;P2;SDS_P1;SDS_P2;PMS_P1;PMS_P2;Temp;Humidity;BMP_temperature;BMP_pressure;BME280_temperature;BME280_humidity;BME280_pressure;Samples;Min_cycle;Max_cycle;Signal;HPM_P1;HPM_P2
2022/06/03 00:00:23;;;;;;;2.72;2.47;;;18.60;99.90;;;;;;5090539;28;20193;-92
2022/06/03 00:03:30;;;;;;;1.95;1.85;;;18.60;99.90;;;;;;5063200;28;20205;-92
2022/06/03 00:06:40;;;;;;;2.10;1.95;;;18.60;99.90;;;;;;5076875;28;20262;-92
2022/06/03 00:12:48;;;;;;;2.53;2.33;;;18.50;99.90;;;;;;5081331;28;20216;-92
2022/06/03 00:15:41;;;;;;;3.40;2.40;;;18.50;99.90;;;;;;5091625;28;20244;-92
2022/06/03 00:18:40;;;;;;;2.63;2.33;;;18.50;99.90;;;;;;5081610;28;20205;-93
2022/06/03 00:21:18;;;;;;;5.13;2.55;;;18.40;99.90;;;;;;5075067;28;20221;-92
2022/06/03 00:24:11;;;;;;;2.22;2.10;;;18.40;99.90;;;;;;5077142;28;20193;-92
2022/06/03 00:27:09;;;;;;;2.03;1.83;;;18.40;99.90;;;;;;5094521;28;20204;-92
2022/06/03 00:30:05;;;;;;;2.20;2.03;;;18.30;99.90;;;;;;5085084;28;20229;-92
2022/06/03 00:33:14;;;;;;;3.30;2.40;;;18.30;99.90;;;;;;5082704;28;20303;-92
2022/06/03 00:36:01;;;;;;;2.53;2.33;;;18.30;99.90;;;;;;5089142;28;20193;-92
2022/06/03 00:38:50;;;;;;;1.27;1.27;;;18.20;99.90;;;;;;5075216;28;20258;-93
2022/06/03 00:41:45;;;;;;;2.30;2.10;;;18.20;99.90;;;;;;5075295;28;20225;-92
2022/06/03 00:44:31;;;;;;;2.15;1.95;;;18.10;99.90;;;;;;5075181;28;20278;-93
2022/06/03 00:47:16;;;;;;;2.85;1.88;;;18.10;99.90;;;;;;5075363;28;20197;-93
2022/06/03 00:50:13;;;;;;;2.25;2.10;;;18.00;99.90;;;;;;5074751;28;20225;-93
2022/06/03 00:53:10;;;;;;;2.25;2.05;;;18.00;99.90;;;;;;5077089;28;20241;-92
2022/06/03 00:56:10;;;;;;;2.13;2.00;;;18.00;99.90;;;;;;5075147;28;20213;-92
2022/06/03 00:59:01;;;;;;;1.80;1.70;;;17.90;99.90;;;;;;5076891;28;20199;-92
2022/06/03 01:01:34;;;;;;;2.25;2.05;;;17.90;99.90;;;;;;5085649;28;20221;-92
2022/06/03 01:04:39;;;;;;;2.92;2.17;;;17.90;99.90;;;;;;5075390;28;20201;-92
2022/06/03 01:07:17;;;;;;;2.05;1.90;;;17.80;99.90;;;;;;5084980;28;20260;-92
2022/06/03 01:10:27;;;;;;;2.13;1.98;;;17.80;99.90;;;;;;5087350;28;20217;-93
2022/06/03 01:13:31;;;;;;;2.10;2.00;;;17.70;99.90;;;;;;5080026;28;20253;-92
2022/06/03 01:16:19;;;;;;;2.53;2.10;;;17.70;99.90;;;;;;5085460;28;20196;-92
2022/06/03 01:19:12;;;;;;;1.70;1.60;;;17.70;99.90;;;;;;5094614;28;20284;-92
2022/06/03 01:21:55;;;;;;;3.08;2.35;;;17.70;99.90;;;;;;5090171;28;20220;-92
2022/06/03 01:24:57;;;;;;;2.03;1.92;;;17.70;99.90;;;;;;5065283;28;20193;-92
2022/06/03 01:27:53;;;;;;;2.35;2.22;;;17.60;99.90;;;;;;5076616;28;20261;-92
2022/06/03 01:30:45;;;;;;;2.38;2.13;;;17.60;99.90;;;;;;5094280;28;20223;-92
2022/06/03 01:33:44;;;;;;;4.65;2.90;;;17.60;99.90;;;;;;5094299;28;20197;-92
2022/06/03 01:36:34;;;;;;;1.60;1.50;;;17.60;99.90;;;;;;5094166;28;20292;-92
2022/06/03 01:39:26;;;;;;;2.22;2.05;;;17.50;99.90;;;;;;5076282;28;20193;-92
2022/06/03 01:42:39;;;;;;;2.30;2.10;;;17.50;99.90;;;;;;5057032;28;20305;-92
2022/06/03 01:45:54;;;;;;;2.50;2.28;;;17.50;99.90;;;;;;5070350;28;20197;-92
2022/06/03 01:48:53;;;;;;;3.28;1.77;;;17.50;99.90;;;;;;5036303;28;20197;-92
2022/06/03 01:52:00;;;;;;;2.03;1.85;;;17.40;99.90;;;;;;5093632;28;20224;-91
2022/06/03 01:55:14;;;;;;;1.55;1.48;;;17.40;99.90;;;;;;5082527;28;20213;-92
2022/06/03 01:58:06;;;;;;;2.05;1.95;;;17.40;99.90;;;;;;5041696;28;20221;-91
2022/06/03 02:00:53;;;;;;;1.77;1.67;;;17.40;99.90;;;;;;5092418;28;20199;-92
2022/06/03 02:03:50;;;;;;;1.98;1.88;;;17.30;99.90;;;;;;5075358;28;20208;-91
2022/06/03 02:07:13;;;;;;;1.95;1.85;;;17.30;99.90;;;;;;5082477;28;20196;-91
2022/06/03 02:10:41;;;;;;;1.90;1.80;;;17.30;99.90;;;;;;5061377;28;20225;-91
2022/06/03 02:13:50;;;;;;;2.58;2.30;;;17.20;99.90;;;;;;5009739;28;20198;-91
2022/06/03 02:16:52;;;;;;;2.97;2.55;;;17.20;99.90;;;;;;5008562;28;20207;-91
2022/06/03 02:19:57;;;;;;;1.70;1.60;;;17.20;99.90;;;;;;5090233;28;20277;-91
2022/06/03 02:23:14;;;;;;;1.92;1.77;;;17.10;99.90;;;;;;5092871;28;20234;-92
2022/06/03 02:26:04;;;;;;;2.42;2.22;;;17.10;99.90;;;;;;5018118;28;20199;-91
2022/06/03 02:32:14;;;;;;;1.83;1.73;;;17.00;99.90;;;;;;5047202;28;20340;-91
2022/06/03 02:35:03;;;;;;;4.15;2.30;;;17.00;99.90;;;;;;5084504;28;20208;-91
2022/06/03 02:37:50;;;;;;;2.22;2.13;;;17.00;99.90;;;;;;5062651;28;20208;-91
2022/06/03 02:40:38;;;;;;;2.33;2.10;;;16.90;99.90;;;;;;5075812;28;20247;-91
2022/06/03 02:43:40;;;;;;;2.03;1.88;;;16.80;99.90;;;;;;5090419;28;20203;-91
2022/06/03 02:46:54;;;;;;;2.03;1.92;;;16.80;99.90;;;;;;5087393;28;20197;-91
2022/06/03 02:50:13;;;;;;;1.80;1.70;;;16.70;99.90;;;;;;5078088;28;20196;-91
2022/06/03 02:53:10;;;;;;;2.28;2.08;;;16.70;99.90;;;;;;5085765;28;20212;-91
2022/06/03 02:56:16;;;;;;;2.28;2.08;;;16.60;99.90;;;;;;5042622;28;20217;-91
2022/06/03 02:59:16;;;;;;;2.30;2.20;;;16.60;99.90;;;;;;5083628;28;20250;-91
2022/06/03 03:02:17;;;;;;;5.25;2.50;;;16.50;99.90;;;;;;5081107;28;20295;-91
2022/06/03 03:05:12;;;;;;;2.75;1.90;;;16.50;99.90;;;;;;5093188;28;20220;-91
2022/06/03 03:08:13;;;;;;;2.58;2.38;;;16.40;99.90;;;;;;5085774;28;20211;-91
2022/06/03 03:10:58;;;;;;;1.92;1.83;;;16.40;99.90;;;;;;5052636;28;20283;-91
2022/06/03 03:14:06;;;;;;;3.33;2.25;;;16.40;99.90;;;;;;5073012;28;20197;-91
2022/06/03 03:17:02;;;;;;;3.72;2.47;;;16.40;99.90;;;;;;5061773;28;20223;-92
2022/06/03 03:20:02;;;;;;;2.35;2.15;;;16.30;99.90;;;;;;5091244;28;20196;-91
2022/06/03 03:22:58;;;;;;;2.13;2.03;;;16.30;99.90;;;;;;5096307;28;20274;-91
2022/06/03 03:25:56;;;;;;;2.25;2.05;;;16.40;99.90;;;;;;5096442;28;20257;-91
2022/06/03 03:29:12;;;;;;;2.90;2.35;;;16.40;99.90;;;;;;5094793;28;20193;-91
2022/06/03 03:32:10;;;;;;;2.35;2.15;;;16.40;99.90;;;;;;5065144;28;20235;-91
2022/06/03 03:35:25;;;;;;;2.50;1.83;;;16.40;99.90;;;;;;5076736;28;20250;-91
2022/06/03 03:38:41;;;;;;;2.00;1.90;;;16.40;99.90;;;;;;5076204;28;20197;-91
2022/06/03 03:41:44;;;;;;;1.75;1.65;;;16.40;99.90;;;;;;5083521;28;20270;-91
2022/06/03 03:44:47;;;;;;;2.20;2.05;;;16.40;99.90;;;;;;5072141;28;20200;-90
2022/06/03 03:48:04;;;;;;;2.13;1.95;;;16.40;99.90;;;;;;5097142;28;20218;-91
2022/06/03 03:50:56;;;;;;;2.15;1.98;;;16.40;99.90;;;;;;5082586;28;20220;-91
2022/06/03 03:54:06;;;;;;;2.35;2.15;;;16.40;99.90;;;;;;5083180;28;20220;-92
2022/06/03 03:57:06;;;;;;;2.00;1.90;;;16.40;99.90;;;;;;5093916;28;20208;-91
2022/06/03 04:00:01;;;;;;;1.92;1.83;;;16.40;99.90;;;;;;5094909;28;20269;-91
2022/06/03 04:03:04;;;;;;;4.03;2.63;;;16.40;99.90;;;;;;5079645;28;20299;-91
2022/06/03 04:06:03;;;;;;;2.72;2.53;;;16.40;99.90;;;;;;5067935;28;20284;-91
2022/06/03 04:08:59;;;;;;;2.38;2.17;;;16.40;99.90;;;;;;5075010;28;20213;-91
2022/06/03 04:12:00;;;;;;;2.00;1.80;;;16.40;99.90;;;;;;5075117;28;20221;-91
2022/06/03 04:15:02;;;;;;;2.80;2.28;;;16.40;99.90;;;;;;5075409;28;20204;-92
2022/06/03 04:18:10;;;;;;;1.90;1.80;;;16.50;99.90;;;;;;5075382;28;20204;-91
2022/06/03 04:21:21;;;;;;;3.80;2.15;;;16.50;99.90;;;;;;5075318;28;20286;-90
2022/06/03 04:24:29;;;;;;;2.53;2.33;;;16.50;99.90;;;;;;5074872;28;20201;-90
2022/06/03 04:27:32;;;;;;;2.40;2.20;;;16.60;99.90;;;;;;5075106;28;20201;-90
2022/06/03 04:30:37;;;;;;;2.53;2.33;;;16.60;99.90;;;;;;5074871;28;20212;-95
2022/06/03 04:33:48;;;;;;;2.50;2.20;;;16.70;99.90;;;;;;5064472;28;20246;-90
2022/06/03 04:37:22;;;;;;;5.22;2.70;;;16.80;99.90;;;;;;5074895;28;20211;-90
2022/06/03 04:40:29;;;;;;;2.53;2.33;;;16.90;99.90;;;;;;4993715;28;20263;-90
2022/06/03 04:43:43;;;;;;;2.80;2.40;;;16.90;99.90;;;;;;5074674;28;20205;-90
2022/06/03 04:46:44;;;;;;;2.53;2.33;;;17.00;99.90;;;;;;5064463;28;20204;-90
2022/06/03 04:50:02;;;;;;;2.70;2.50;;;17.00;99.90;;;;;;5050248;28;20208;-90
2022/06/03 04:53:29;;;;;;;2.78;2.45;;;17.10;99.90;;;;;;5074143;28;20312;-89
2022/06/03 04:56:50;;;;;;;2.28;2.08;;;17.10;99.90;;;;;;5067586;28;20212;-90
2022/06/03 05:00:00;;;;;;;3.25;2.83;;;17.20;99.90;;;;;;5052750;28;20225;-90
2022/06/03 05:03:14;;;;;;;3.03;2.45;;;17.20;99.90;;;;;;5054350;28;20245;-90
2022/06/03 05:06:20;;;;;;;2.25;2.05;;;17.30;99.90;;;;;;5054289;28;20208;-90
2022/06/03 05:09:34;;;;;;;3.40;2.83;;;17.30;99.90;;;;;;5061744;28;20425;-90
2022/06/03 05:12:49;;;;;;;2.08;1.98;;;17.30;99.90;;;;;;5074562;28;20237;-91
2022/06/03 05:19:31;;;;;;;2.38;2.17;;;17.50;99.90;;;;;;5074145;28;20237;-90
2022/06/03 05:22:40;;;;;;;2.40;2.10;;;17.60;99.90;;;;;;5073747;28;20220;-91
2022/06/03 05:25:54;;;;;;;3.28;2.50;;;17.80;99.90;;;;;;5074208;28;20239;-90
2022/06/03 05:28:52;;;;;;;3.15;2.10;;;17.80;99.90;;;;;;5011622;28;20298;-90
2022/06/03 05:32:16;;;;;;;2.20;2.10;;;17.90;99.90;;;;;;5073162;28;20229;-90
2022/06/03 05:35:27;;;;;;;1.90;1.77;;;18.00;99.90;;;;;;5065311;28;20201;-90
2022/06/03 05:45:18;;;;;;;4.35;2.97;;;18.30;99.90;;;;;;5069232;28;20205;-90
2022/06/03 05:48:03;;;;;;;2.13;2.03;;;18.40;99.90;;;;;;5086097;28;20247;-90
2022/06/03 05:50:56;;;;;;;6.07;2.40;;;18.50;99.90;;;;;;5080265;28;20270;-90
2022/06/03 05:54:24;;;;;;;2.17;2.08;;;18.60;99.90;;;;;;5071923;28;20201;-90
2022/06/03 05:57:15;;;;;;;3.05;2.85;;;18.70;99.90;;;;;;5073310;28;20201;-92
2022/06/03 06:02:57;;;;;;;2.38;2.17;;;19.00;99.90;;;;;;5077916;28;20217;-92
2022/06/03 06:05:38;;;;;;;2.70;2.47;;;19.10;99.90;;;;;;5085029;28;20231;-93
2022/06/03 06:08:26;;;;;;;3.60;2.38;;;19.20;99.90;;;;;;5053973;28;20287;-92
2022/06/03 06:11:04;;;;;;;9.82;2.78;;;19.20;99.90;;;;;;5072662;28;20217;-92
2022/06/03 06:14:05;;;;;;;3.00;2.70;;;19.30;99.90;;;;;;5091245;28;20216;-92
2022/06/03 06:16:41;;;;;;;3.03;2.72;;;19.40;99.90;;;;;;5092470;28;20209;-91
2022/06/03 06:19:25;;;;;;;2.80;2.53;;;19.50;99.90;;;;;;5074033;28;20193;-92
2022/06/03 06:22:17;;;;;;;3.13;2.83;;;19.50;99.90;;;;;;5087595;28;20227;-92
2022/06/03 06:25:07;;;;;;;2.72;2.53;;;19.70;99.90;;;;;;5079912;28;20201;-92
2022/06/03 06:28:07;;;;;;;3.55;2.30;;;19.70;99.90;;;;;;5074395;28;20192;-92
2022/06/03 06:31:10;;;;;;;3.47;2.78;;;19.80;99.90;;;;;;5064848;28;20201;-91
2022/06/03 06:34:12;;;;;;;2.70;2.50;;;20.00;99.90;;;;;;5072602;28;20250;-92
2022/06/03 06:37:18;;;;;;;3.33;3.03;;;20.10;99.90;;;;;;5074933;28;20197;-91
2022/06/03 06:40:00;;;;;;;2.55;2.35;;;20.20;99.90;;;;;;5084986;28;20209;-93
2022/06/03 06:42:46;;;;;;;2.88;2.15;;;20.30;99.90;;;;;;5093610;28;20250;-92
2022/06/03 06:45:36;;;;;;;2.60;2.40;;;20.50;99.90;;;;;;5072709;28;20212;-92
2022/06/03 06:48:26;;;;;;;2.20;2.00;;;20.60;99.90;;;;;;5053355;28;20202;-92
2022/06/03 06:51:08;;;;;;;2.05;1.95;;;20.70;99.90;;;;;;5069709;28;20212;-92
2022/06/03 06:53:42;;;;;;;2.47;2.28;;;20.80;99.90;;;;;;5082097;28;20217;-92
2022/06/03 06:56:19;;;;;;;2.33;2.13;;;21.10;99.90;;;;;;5075265;28;20219;-92
2022/06/03 06:58:55;;;;;;;1.65;1.55;;;21.20;99.30;;;;;;5097447;28;20200;-92
2022/06/03 07:01:43;;;;;;;2.22;2.05;;;21.50;98.80;;;;;;5088692;28;20271;-92
2022/06/03 07:04:33;;;;;;;1.75;1.65;;;21.60;98.50;;;;;;5077180;28;20209;-92
2022/06/03 07:07:19;;;;;;;3.00;2.20;;;21.80;98.30;;;;;;5077157;28;20208;-92
2022/06/03 07:10:06;;;;;;;2.05;1.85;;;22.10;98.10;;;;;;5076971;28;20353;-92
2022/06/03 07:13:16;;;;;;;1.80;1.70;;;22.30;96.90;;;;;;5092584;28;20228;-91
2022/06/03 07:19:47;;;;;;;1.95;1.83;;;22.70;96.10;;;;;;5093087;28;20252;-91
2022/06/03 07:22:16;;;;;;;1.88;1.77;;;24.50;93.70;;;;;;5082539;28;20299;-92
2022/06/03 07:24:59;;;;;;;3.17;2.45;;;25.30;91.40;;;;;;5081502;28;20262;-92
2022/06/03 07:27:45;;;;;;;1.77;1.67;;;26.40;90.00;;;;;;5089265;28;20226;-91
2022/06/03 07:30:18;;;;;;;2.45;2.08;;;;;;;;;;5096688;28;20212;-92
2022/06/03 07:33:03;;;;;;;2.30;2.20;;;27.80;81.50;;;;;;5086659;28;20225;-91
2022/06/03 07:35:44;;;;;;;2.20;2.00;;;28.60;78.50;;;;;;5079167;28;20260;-91
2022/06/03 07:38:28;;;;;;;1.65;1.55;;;29.20;74.90;;;;;;5079853;28;20200;-92
2022/06/03 07:41:03;;;;;;;1.85;1.73;;;30.20;72.40;;;;;;5076548;28;20221;-92
2022/06/03 07:43:42;;;;;;;1.95;1.85;;;30.70;68.90;;;;;;5056444;28;20224;-92
2022/06/03 07:46:18;;;;;;;2.22;1.65;;;31.10;65.70;;;;;;5059803;28;20205;-89
2022/06/03 07:48:51;;;;;;;1.83;1.65;;;31.00;67.00;;;;;;5096268;28;20200;-89
2022/06/03 07:51:31;;;;;;;4.57;1.95;;;31.30;64.80;;;;;;5093959;28;20302;-88
2022/06/03 07:54:06;;;;;;;2.55;2.13;;;31.70;64.80;;;;;;5076178;28;20270;-88
2022/06/03 07:56:38;;;;;;;1.83;1.73;;;33.10;61.50;;;;;;5079110;28;20192;-87
2022/06/03 07:59:15;;;;;;;1.70;1.60;;;33.80;59.40;;;;;;5087971;28;20211;-88
2022/06/03 08:01:45;;;;;;;2.85;1.60;;;34.80;54.80;;;;;;5054536;28;20221;-88
2022/06/03 08:04:27;;;;;;;1.90;1.80;;;35.10;55.80;;;;;;5073134;28;20246;-87
2022/06/03 08:12:39;;;;;;;1.60;1.50;;;34.40;53.90;;;;;;5083449;28;20250;-88
2022/06/03 08:15:15;;;;;;;2.15;1.85;;;35.30;51.60;;;;;;5095735;28;20242;-84
2022/06/03 08:17:52;;;;;;;3.50;1.77;;;36.10;50.60;;;;;;5094365;28;20292;-84
2022/06/03 08:20:24;;;;;;;2.83;1.70;;;36.30;48.20;;;;;;5065219;28;20223;-84
2022/06/03 08:22:56;;;;;;;1.83;1.63;;;36.30;48.50;;;;;;5075117;28;20216;-84
2022/06/03 08:25:28;;;;;;;1.40;1.30;;;35.70;48.10;;;;;;5075614;28;20227;-85
2022/06/03 08:27:59;;;;;;;1.65;1.55;;;35.40;48.20;;;;;;5076096;28;20192;-85
2022/06/03 08:30:30;;;;;;;2.20;2.00;;;35.70;50.00;;;;;;5086348;28;20212;-85
2022/06/03 08:33:02;;;;;;;2.08;1.60;;;36.20;48.20;;;;;;5074979;28;20230;-85
2022/06/03 08:35:35;;;;;;;5.38;1.60;;;36.90;48.90;;;;;;5072501;28;20227;-85
2022/06/03 08:38:10;;;;;;;1.52;1.42;;;37.60;47.70;;;;;;5074399;28;20299;-85
2022/06/03 08:40:45;;;;;;;1.60;1.50;;;38.10;45.10;;;;;;5080568;28;20199;-84
2022/06/03 08:43:22;;;;;;;1.73;1.50;;;37.70;44.50;;;;;;5086726;28;20243;-85
2022/06/03 08:45:56;;;;;;;1.67;1.58;;;36.30;45.00;;;;;;5070367;28;20283;-85
2022/06/03 08:48:29;;;;;;;1.90;1.73;;;35.50;49.00;;;;;;5093847;28;20232;-84
2022/06/03 08:50:59;;;;;;;3.88;1.80;;;36.30;45.60;;;;;;5092566;28;20240;-85
2022/06/03 08:53:37;;;;;;;4.47;1.83;;;36.40;46.40;;;;;;5094763;28;20192;-84
2022/06/03 08:56:08;;;;;;;2.00;1.80;;;36.60;46.50;;;;;;5089185;28;20223;-85
2022/06/03 08:58:46;;;;;;;2.78;1.70;;;36.30;46.40;;;;;;5074679;28;20235;-85
2022/06/03 09:01:27;;;;;;;1.58;1.48;;;36.20;45.00;;;;;;5074239;28;20278;-85
2022/06/03 09:04:09;;;;;;;2.30;2.10;;;36.30;45.40;;;;;;5074574;28;20236;-86
2022/06/03 09:07:05;;;;;;;1.45;1.35;;;36.40;45.60;;;;;;5091746;28;20204;-86
2022/06/03 09:09:58;;;;;;;2.17;1.65;;;36.00;46.30;;;;;;5092417;28;20230;-86
2022/06/03 09:12:51;;;;;;;1.52;1.42;;;36.40;46.70;;;;;;5073697;28;20220;-86
2022/06/03 09:15:38;;;;;;;1.48;1.38;;;35.50;45.00;;;;;;5084071;28;20200;-85
2022/06/03 09:18:38;;;;;;;1.63;1.52;;;34.90;45.40;;;;;;5094595;28;20231;-86
2022/06/03 09:21:22;;;;;;;1.63;1.52;;;34.90;45.50;;;;;;5093254;28;20220;-85
2022/06/03 09:24:00;;;;;;;1.70;1.60;;;34.20;46.60;;;;;;5092426;28;20242;-86
2022/06/03 09:26:46;;;;;;;1.13;1.13;;;34.60;47.40;;;;;;5094342;28;20238;-87
2022/06/03 09:29:30;;;;;;;2.00;1.60;;;35.20;46.20;;;;;;5085802;28;20200;-87
2022/06/03 09:32:08;;;;;;;2.47;1.75;;;35.70;45.10;;;;;;5074071;28;20289;-87
2022/06/03 09:34:52;;;;;;;1.88;1.77;;;35.50;44.40;;;;;;5062557;28;20188;-87
2022/06/03 09:37:39;;;;;;;1.83;1.73;;;35.50;44.70;;;;;;5092263;28;20208;-87
2022/06/03 09:40:17;;;;;;;3.00;1.90;;;35.30;46.00;;;;;;5074110;28;20201;-87
2022/06/03 09:42:59;;;;;;;1.75;1.65;;;35.60;45.40;;;;;;5079160;28;20224;-87
2022/06/03 09:45:48;;;;;;;1.60;1.50;;;35.70;45.80;;;;;;5093950;28;20200;-85
2022/06/03 09:48:27;;;;;;;1.30;1.30;;;35.10;46.40;;;;;;5075856;28;20264;-87
2022/06/03 09:51:19;;;;;;;1.63;1.50;;;34.20;48.30;;;;;;5053834;28;20221;-87
2022/06/03 09:53:49;;;;;;;1.67;1.58;;;33.90;49.10;;;;;;5085450;28;20196;-85
2022/06/03 09:56:29;;;;;;;1.95;1.75;;;34.20;49.00;;;;;;5093438;28;20200;-86
2022/06/03 09:59:04;;;;;;;2.00;1.90;;;34.90;48.50;;;;;;5077402;28;20278;-86
2022/06/03 10:01:33;;;;;;;1.75;1.65;;;34.70;48.80;;;;;;5081311;28;20231;-86
2022/06/03 10:04:04;;;;;;;2.10;2.00;;;34.40;50.00;;;;;;5073921;28;20213;-86
2022/06/03 10:06:46;;;;;;;2.25;1.85;;;34.70;50.50;;;;;;5075114;28;20192;-86
2022/06/03 10:12:58;;;;;;;2.75;1.98;;;35.70;48.70;;;;;;5091982;28;20230;-86
2022/06/03 10:15:53;;;;;;;2.10;1.90;;;35.70;49.30;;;;;;5063294;28;20282;-86
2022/06/03 10:18:39;;;;;;;1.65;1.55;;;34.80;49.20;;;;;;5073233;28;20246;-85
2022/06/03 10:21:54;;;;;;;4.07;1.83;;;34.70;50.10;;;;;;5082501;28;20336;-86
2022/06/03 10:24:34;;;;;;;3.05;1.95;;;35.10;50.50;;;;;;5083158;28;20239;-87
2022/06/03 10:27:29;;;;;;;1.98;1.85;;;35.40;50.80;;;;;;5053077;28;20204;-88
2022/06/03 10:30:30;;;;;;;1.60;1.50;;;34.80;51.30;;;;;;5083908;28;20207;-87
2022/06/03 10:33:25;;;;;;;1.77;1.67;;;34.90;52.10;;;;;;5083219;28;20200;-88
2022/06/03 10:36:12;;;;;;;1.70;1.58;;;34.00;52.80;;;;;;5072801;28;20200;-88
2022/06/03 10:38:46;;;;;;;2.97;2.10;;;33.90;55.20;;;;;;5084049;28;20218;-87
2022/06/03 10:41:52;;;;;;;2.10;1.90;;;34.20;54.70;;;;;;5072343;28;20298;-87
2022/06/03 10:44:37;;;;;;;2.08;1.98;;;34.70;54.00;;;;;;5072627;28;20223;-87
2022/06/03 10:48:02;;;;;;;2.08;1.98;;;35.00;54.20;;;;;;5071651;28;20208;-88
2022/06/03 10:50:55;;;;;;;2.95;2.03;;;34.60;54.00;;;;;;5071836;28;20216;-88
2022/06/03 11:02:57;;;;;;;2.22;2.05;;;33.10;56.90;;;;;;5072627;28;20305;-88
2022/06/03 11:06:08;;;;;;;2.58;1.67;;;33.30;57.00;;;;;;5071805;28;20276;-88
2022/06/03 11:09:19;;;;;;;2.47;2.28;;;32.80;56.80;;;;;;5072739;28;20224;-87
2022/06/03 11:12:03;;;;;;;1.85;1.75;;;32.50;57.20;;;;;;5066234;28;20312;-86
2022/06/03 11:15:02;;;;;;;2.15;1.95;;;32.60;57.60;;;;;;5071568;28;20201;-86
2022/06/03 11:17:43;;;;;;;2.30;2.10;;;32.70;57.20;;;;;;5072038;28;20196;-86
2022/06/03 11:20:45;;;;;;;2.60;2.05;;;32.70;57.40;;;;;;5072279;28;20467;-86
2022/06/03 11:23:49;;;;;;;2.15;2.05;;;32.60;57.50;;;;;;5071981;28;20196;-88
2022/06/03 11:29:30;;;;;;;2.13;2.00;;;32.40;58.30;;;;;;5071902;28;20208;-90
2022/06/03 11:32:01;;;;;;;1.70;1.60;;;32.40;57.60;;;;;;5072120;28;20252;-89
2022/06/03 11:34:39;;;;;;;1.73;1.63;;;32.70;57.50;;;;;;5090358;28;20204;-88
2022/06/03 11:37:14;;;;;;;2.60;2.10;;;32.70;57.20;;;;;;5094865;28;20238;-89
2022/06/03 11:39:49;;;;;;;2.22;1.90;;;32.40;57.70;;;;;;5096026;28;20253;-86
2022/06/03 11:42:23;;;;;;;2.20;2.00;;;32.40;57.90;;;;;;5096071;28;20223;-86
2022/06/03 11:44:59;;;;;;;1.95;1.85;;;33.10;57.30;;;;;;5095763;28;20247;-89
2022/06/03 11:47:34;;;;;;;2.13;1.92;;;33.60;56.30;;;;;;5095309;28;20269;-89
2022/06/03 11:50:04;;;;;;;2.17;1.88;;;33.90;56.30;;;;;;5076489;28;20200;-88
2022/06/03 11:52:45;;;;;;;2.20;2.10;;;33.90;55.80;;;;;;5075955;28;20295;-89
2022/06/03 11:55:15;;;;;;;3.05;1.92;;;33.60;56.50;;;;;;5095308;28;20284;-89
2022/06/03 11:57:52;;;;;;;1.88;1.77;;;32.90;56.70;;;;;;5092429;28;20247;-89
2022/06/03 12:00:24;;;;;;;2.58;2.35;;;33.10;57.70;;;;;;5075328;28;20192;-90
2022/06/03 12:03:08;;;;;;;2.38;2.10;;;33.20;57.70;;;;;;5062900;28;20266;-89
2022/06/03 12:05:43;;;;;;;1.75;1.65;;;33.50;57.30;;;;;;5055315;28;20217;-88
2022/06/03 12:08:18;;;;;;;2.10;2.00;;;33.60;56.50;;;;;;5054563;28;20239;-88
2022/06/03 12:10:54;;;;;;;1.90;1.80;;;33.20;57.80;;;;;;5054173;28;20211;-88
2022/06/03 12:13:27;;;;;;;2.45;2.00;;;33.50;57.90;;;;;;5054986;28;20236;-89
2022/06/03 12:16:06;;;;;;;2.40;2.20;;;33.40;57.70;;;;;;5054263;28;20267;-89
2022/06/03 12:19:03;;;;;;;2.78;1.83;;;33.80;57.90;;;;;;5054451;28;20271;-89
2022/06/03 12:21:56;;;;;;;2.28;2.08;;;33.80;58.00;;;;;;5054244;28;20241;-88
2022/06/03 12:24:45;;;;;;;10.18;2.10;;;33.70;58.10;;;;;;5054177;28;20224;-89
2022/06/03 12:27:24;;;;;;;1.98;1.88;;;33.90;58.10;;;;;;5054281;28;20305;-88
2022/06/03 12:30:23;;;;;;;1.80;1.70;;;33.70;57.60;;;;;;5054062;28;20220;-88
2022/06/03 12:32:56;;;;;;;2.00;1.90;;;33.50;58.30;;;;;;5042323;28;20316;-88
2022/06/03 12:36:07;;;;;;;3.03;2.13;;;33.10;59.20;;;;;;5054165;28;20209;-88
2022/06/03 12:38:45;;;;;;;2.00;1.90;;;32.80;58.90;;;;;;5054125;28;20251;-88
2022/06/03 12:41:51;;;;;;;1.77;1.67;;;32.70;60.20;;;;;;5053627;28;20225;-86
2022/06/03 12:44:43;;;;;;;2.42;1.88;;;33.00;59.60;;;;;;5053900;28;20217;-85
2022/06/03 12:47:50;;;;;;;2.40;2.17;;;32.90;59.10;;;;;;5053406;28;20292;-88
2022/06/03 12:50:41;;;;;;;2.00;1.90;;;32.60;60.00;;;;;;5053786;28;20201;-88
2022/06/03 12:53:46;;;;;;;2.22;1.80;;;32.60;60.20;;;;;;5053598;28;20281;-88
2022/06/03 12:56:27;;;;;;;1.83;1.70;;;32.70;60.20;;;;;;5053565;28;20247;-88
2022/06/03 12:59:11;;;;;;;1.92;1.80;;;32.50;60.60;;;;;;5053643;28;20297;-88
2022/06/03 13:01:49;;;;;;;2.22;2.08;;;32.20;61.20;;;;;;5053270;28;20312;-85
2022/06/03 13:04:40;;;;;;;2.03;1.92;;;31.90;61.70;;;;;;5053437;28;20209;-85
2022/06/03 13:07:31;;;;;;;2.33;2.13;;;31.80;62.00;;;;;;5053255;28;20213;-88
2022/06/03 13:10:27;;;;;;;1.80;1.70;;;31.40;62.60;;;;;;5053623;28;20205;-85
2022/06/03 13:13:17;;;;;;;2.35;2.15;;;31.30;63.30;;;;;;5053267;28;20269;-86
2022/06/03 13:15:50;;;;;;;2.25;2.15;;;31.30;63.40;;;;;;5053036;28;20232;-85
2022/06/03 13:18:40;;;;;;;2.08;1.90;;;31.10;63.50;;;;;;5052995;28;20236;-88
2022/06/03 13:21:18;;;;;;;2.30;2.10;;;31.10;63.90;;;;;;5052928;28;20305;-88
2022/06/03 13:24:15;;;;;;;2.58;2.20;;;31.20;64.30;;;;;;5053109;28;20293;-88
2022/06/03 13:27:03;;;;;;;2.60;2.40;;;31.20;63.90;;;;;;5052533;28;20312;-88
2022/06/03 13:30:11;;;;;;;2.00;1.90;;;31.30;63.80;;;;;;5051364;28;20285;-88
2022/06/03 13:32:59;;;;;;;2.55;2.35;;;31.40;63.90;;;;;;5053382;28;20230;-88
2022/06/03 13:35:31;;;;;;;2.35;2.15;;;31.20;64.10;;;;;;5052947;28;20206;-88
2022/06/03 13:38:17;;;;;;;3.08;2.13;;;31.10;64.30;;;;;;5053491;28;20236;-89
2022/06/03 13:43:27;;;;;;;2.45;2.25;;;30.90;65.80;;;;;;5052793;28;20198;-85
2022/06/03 13:46:25;;;;;;;2.35;2.17;;;30.40;65.30;;;;;;5052973;28;20249;-85
2022/06/03 13:48:59;;;;;;;2.22;2.03;;;30.40;66.20;;;;;;5053368;28;20216;-88
2022/06/03 13:51:51;;;;;;;2.22;2.03;;;30.30;66.60;;;;;;5052933;28;20255;-85
2022/06/03 13:54:24;;;;;;;2.30;2.20;;;30.30;66.80;;;;;;5053474;28;20213;-88
2022/06/03 13:57:00;;;;;;;2.22;2.13;;;30.40;66.50;;;;;;5052986;28;20289;-89
2022/06/03 13:59:33;;;;;;;2.30;2.10;;;30.30;66.40;;;;;;5052565;28;20206;-88
2022/06/03 14:02:09;;;;;;;2.53;2.33;;;30.40;66.30;;;;;;5052776;28;20298;-88
2022/06/03 14:04:51;;;;;;;2.25;2.13;;;30.40;66.30;;;;;;5053189;28;20252;-85
2022/06/03 14:07:33;;;;;;;2.42;2.22;;;30.40;66.30;;;;;;5052811;28;20257;-85
2022/06/03 14:10:08;;;;;;;2.20;2.10;;;30.30;66.80;;;;;;5052797;28;20201;-88
2022/06/03 14:12:43;;;;;;;4.07;2.28;;;30.20;66.60;;;;;;5053109;28;20229;-88
2022/06/03 14:15:18;;;;;;;2.33;2.10;;;30.30;67.50;;;;;;5052835;28;20213;-88
2022/06/03 14:17:54;;;;;;;2.00;1.90;;;30.30;67.40;;;;;;5052784;28;20205;-85
2022/06/03 14:20:28;;;;;;;2.25;2.05;;;30.20;67.10;;;;;;5052846;28;20201;-88
2022/06/03 14:23:11;;;;;;;2.17;1.98;;;30.10;67.30;;;;;;5052755;28;20232;-88
2022/06/03 14:25:46;;;;;;;2.15;2.05;;;30.20;67.20;;;;;;5052528;28;20249;-89
2022/06/03 14:28:19;;;;;;;1.90;1.80;;;30.20;67.00;;;;;;5052579;28;20297;-89
2022/06/03 14:30:52;;;;;;;2.33;2.13;;;30.10;67.60;;;;;;5052676;28;20205;-89
2022/06/03 14:33:23;;;;;;;5.00;2.13;;;29.70;68.40;;;;;;5053327;28;20209;-89
2022/06/03 14:35:57;;;;;;;2.15;2.05;;;29.60;68.70;;;;;;5086900;28;20264;-87
2022/06/03 14:38:32;;;;;;;2.38;2.13;;;29.70;68.60;;;;;;5093274;28;20303;-88
2022/06/03 14:41:01;;;;;;;2.55;2.40;;;29.60;68.90;;;;;;5093659;28;20283;-89
2022/06/03 14:43:31;;;;;;;2.15;2.05;;;29.70;68.80;;;;;;5085793;28;20217;-95
2022/06/03 14:46:03;;;;;;;3.30;2.80;;;29.70;68.80;;;;;;5074249;28;20225;-88
2022/06/03 14:48:40;;;;;;;1.65;1.55;;;29.70;69.20;;;;;;5073125;28;20201;-88
2022/06/03 14:51:15;;;;;;;1.63;1.52;;;29.80;68.60;;;;;;5072737;28;20288;-87
2022/06/03 14:53:50;;;;;;;2.47;2.28;;;29.80;68.50;;;;;;5052788;28;20220;-87
2022/06/03 14:56:32;;;;;;;2.10;2.00;;;29.70;68.80;;;;;;5053196;28;20201;-86
2022/06/03 14:59:04;;;;;;;2.30;1.98;;;29.50;69.20;;;;;;5055255;28;20205;-87
2022/06/03 15:01:41;;;;;;;2.20;2.03;;;29.40;69.70;;;;;;5093124;28;20303;-86
2022/06/03 15:04:16;;;;;;;9.95;2.22;;;29.40;70.10;;;;;;5093377;28;20207;-87
2022/06/03 15:06:50;;;;;;;2.17;2.08;;;29.20;70.40;;;;;;5081775;28;20372;-85
2022/06/03 15:09:31;;;;;;;2.55;2.05;;;29.20;70.20;;;;;;5072667;28;20212;-87
2022/06/03 15:12:01;;;;;;;2.10;2.00;;;29.20;70.50;;;;;;5074402;28;20303;-87
2022/06/03 15:14:30;;;;;;;2.47;2.25;;;29.10;70.70;;;;;;5076107;28;20236;-88
2022/06/03 15:17:01;;;;;;;1.92;1.83;;;29.00;70.90;;;;;;5075894;28;20198;-87
2022/06/03 15:19:41;;;;;;;2.50;2.30;;;28.90;71.70;;;;;;5076294;28;20209;-87
2022/06/03 15:22:14;;;;;;;2.10;1.95;;;28.80;72.30;;;;;;5075709;28;20313;-87
2022/06/03 15:24:53;;;;;;;2.58;2.38;;;28.70;72.50;;;;;;5075749;28;20277;-86
2022/06/03 15:27:33;;;;;;;2.90;2.25;;;28.70;72.50;;;;;;5075544;28;20224;-87
2022/06/03 15:30:08;;;;;;;2.13;2.00;;;28.60;72.50;;;;;;5075588;28;20212;-87